createdAt,value
2022-11-24T00:00:02.163Z,98359.06
2022-11-24T00:01:12.624Z,98358.97
2022-11-24T00:02:14.244Z,98354.63
2022-11-24T00:03:15.868Z,98354.50
2022-11-24T00:04:17.398Z,98361.47
2022-11-24T00:05:18.840Z,98355.56
2022-11-24T00:06:20.343Z,98360.00
2022-11-24T00:07:21.820Z,98363.06
2022-11-24T00:08:23.279Z,98362.84
2022-11-24T00:09:24.737Z,98363.78
2022-11-24T00:10:26.179Z,98364.72
2022-11-24T00:11:29.378Z,98362.09
2022-11-24T00:12:30.828Z,98364.00
2022-11-24T00:13:32.481Z,98362.50
2022-11-24T00:14:34.026Z,98366.38
2022-11-24T00:15:35.594Z,98375.22
2022-11-24T00:16:37.988Z,98368.53
2022-11-24T00:17:39.491Z,98369.78
2022-11-24T00:18:41.874Z,98368.97
2022-11-24T00:19:43.484Z,98373.22
2022-11-24T00:20:51.675Z,98369.47
2022-11-24T00:21:53.180Z,98374.50
2022-11-24T00:22:54.648Z,98373.88
2022-11-24T00:23:56.128Z,98375.63
2022-11-24T00:24:57.556Z,98380.50
2022-11-24T00:26:09.921Z,98370.75
2022-11-24T00:27:11.408Z,98379.03
2022-11-24T00:28:12.870Z,98386.84
2022-11-24T00:29:14.328Z,98384.13
2022-11-24T00:30:15.926Z,98384.75
2022-11-24T00:31:23.250Z,98382.06
2022-11-24T00:32:25.016Z,98384.53
2022-11-24T00:33:26.475Z,98382.69
2022-11-24T00:34:27.897Z,98391.94
2022-11-24T00:35:29.325Z,98384.06
2022-11-24T00:36:32.386Z,98389.97
2022-11-24T00:37:33.841Z,98385.41
2022-11-24T00:38:35.329Z,98385.41
2022-11-24T00:39:36.769Z,98392.97
2022-11-24T00:40:38.202Z,98389.53
2022-11-24T00:41:40.081Z,98388.00
2022-11-24T00:42:41.547Z,98388.00
2022-11-24T00:43:42.985Z,98382.91
2022-11-24T00:44:44.440Z,98389.03
2022-11-24T00:45:45.989Z,98388.31
2022-11-24T00:46:47.588Z,98391.94
2022-11-24T00:47:49.122Z,98391.84
2022-11-24T00:48:50.686Z,98386.53
2022-11-24T00:49:52.147Z,98387.38
2022-11-24T00:51:00.986Z,98382.91
2022-11-24T00:52:02.420Z,98387.16
2022-11-24T00:53:03.929Z,98380.28
2022-11-24T00:54:05.400Z,98384.16
2022-11-24T00:55:06.974Z,98384.66
2022-11-24T00:56:09.156Z,98382.28
2022-11-24T00:57:10.659Z,98384.25
2022-11-24T00:58:12.081Z,98383.53
2022-11-24T00:59:13.527Z,98380.94
2022-11-24T01:00:15.204Z,98383.53
2022-11-24T01:01:18.122Z,98380.19
2022-11-24T01:02:19.667Z,98384.66
2022-11-24T01:03:21.344Z,98384.97
2022-11-24T01:04:22.758Z,98388.78
2022-11-24T01:05:24.193Z,98386.31
2022-11-24T01:06:26.400Z,98385.38
2022-11-24T01:07:27.879Z,98387.13
2022-11-24T01:08:29.336Z,98388.19
2022-11-24T01:09:30.808Z,98390.88
2022-11-24T01:10:32.853Z,98398.03
2022-11-24T01:11:35.288Z,98386.84
2022-11-24T01:12:36.749Z,98389.31
2022-11-24T01:13:38.324Z,98392.63
2022-11-24T01:14:39.797Z,98389.44
2022-11-24T01:15:41.375Z,98386.19
2022-11-24T01:16:42.902Z,98386.00
2022-11-24T01:17:44.389Z,98398.25
2022-11-24T01:18:46.059Z,98395.84
2022-11-24T01:19:47.486Z,98400.41
2022-11-24T01:20:48.946Z,98403.00
2022-11-24T01:21:50.473Z,98401.06
2022-11-24T01:22:51.909Z,98404.47
2022-11-24T01:23:53.372Z,98395.75
2022-11-24T01:24:54.843Z,98403.53
2022-11-24T01:25:56.302Z,98403.44
2022-11-24T01:26:57.741Z,98407.69
2022-11-24T01:27:59.219Z,98409.56
2022-11-24T01:29:00.661Z,98407.91
2022-11-24T01:30:02.129Z,98407.19
2022-11-24T01:31:05.501Z,98407.19
2022-11-24T01:32:06.994Z,98406.34
2022-11-24T01:33:08.417Z,98412.16
2022-11-24T01:34:09.853Z,98409.25
2022-11-24T01:35:11.330Z,98414.03
2022-11-24T01:36:12.895Z,98409.56
2022-11-24T01:37:14.344Z,98412.72
2022-11-24T01:38:15.792Z,98414.16
2022-11-24T01:39:17.244Z,98408.66
2022-11-24T01:40:18.696Z,98407.50
2022-11-24T01:41:21.697Z,98400.47
2022-11-24T01:42:23.146Z,98403.88
2022-11-24T01:43:24.587Z,98413.63
2022-11-24T01:44:27.306Z,98407.84
2022-11-24T01:45:32.217Z,98408.16
2022-11-24T01:46:45.317Z,98408.31
2022-11-24T01:47:46.771Z,98418.63
2022-11-24T01:48:52.637Z,98418.63
2022-11-24T01:49:55.741Z,98412.50
2022-11-24T01:51:13.417Z,98410.53
2022-11-24T01:52:18.816Z,98411.03
2022-11-24T01:53:22.749Z,98413.34
2022-11-24T01:54:26.150Z,98410.53
2022-11-24T01:55:30.806Z,98409.72
2022-11-24T01:56:33.772Z,98419.25
2022-11-24T01:57:38.318Z,98410.72
2022-11-24T01:58:40.685Z,98414.41
2022-11-24T01:59:42.296Z,98417.00
2022-11-24T02:00:44.765Z,98417.81
2022-11-24T02:01:47.574Z,98416.88
2022-11-24T02:02:49.543Z,98415.94
2022-11-24T02:03:51.987Z,98421.75
2022-11-24T02:04:54.280Z,98409.50
2022-11-24T02:06:02.047Z,98417.91
2022-11-24T02:07:05.486Z,98415.72
2022-11-24T02:08:09.851Z,98418.53
2022-11-24T02:09:18.939Z,98409.28
2022-11-24T02:10:20.957Z,98416.16
2022-11-24T02:11:23.360Z,98420.50
2022-11-24T02:12:26.369Z,98418.09
2022-11-24T02:13:28.088Z,98414.56
2022-11-24T02:14:29.768Z,98410.94
2022-11-24T02:15:32.180Z,98415.13
2022-11-24T02:16:36.808Z,98416.88
2022-11-24T02:17:38.275Z,98414.91
2022-11-24T02:18:40.276Z,98418.22
2022-11-24T02:19:41.698Z,98419.66
2022-11-24T02:20:43.150Z,98424.69
2022-11-24T02:21:44.730Z,98417.59
2022-11-24T02:23:10.035Z,98410.63
2022-11-24T02:24:20.124Z,98411.38
2022-11-24T02:25:35.618Z,98410.31
2022-11-24T02:26:45.541Z,98419.78
2022-11-24T02:27:52.250Z,98418.13
2022-11-24T02:28:55.255Z,98413.03
2022-11-24T02:29:56.728Z,98415.72
2022-11-24T02:30:59.637Z,98415.00
2022-11-24T02:32:04.042Z,98413.22
2022-11-24T02:33:05.485Z,98410.63
2022-11-24T02:34:06.900Z,98413.13
2022-11-24T02:35:09.126Z,98410.44
2022-11-24T02:36:10.579Z,98420.22
2022-11-24T02:37:12.088Z,98423.75
2022-11-24T02:38:14.092Z,98423.03
2022-11-24T02:39:15.636Z,98430.06
2022-11-24T02:40:20.225Z,98429.25
2022-11-24T02:41:23.456Z,98431.00
2022-11-24T02:42:26.453Z,98429.25
2022-11-24T02:43:30.218Z,98431.84
2022-11-24T02:44:35.544Z,98424.25
2022-11-24T02:45:37.168Z,98413.88
2022-11-24T02:46:38.621Z,98429.56
2022-11-24T02:47:40.115Z,98417.41
2022-11-24T02:48:41.681Z,98423.41
2022-11-24T02:49:43.187Z,98423.63
2022-11-24T02:50:44.623Z,98419.38
2022-11-24T02:51:46.066Z,98425.59
2022-11-24T02:52:47.522Z,98423.84
2022-11-24T02:53:49.024Z,98429.97
2022-11-24T02:54:50.484Z,98421.44
2022-11-24T02:55:51.885Z,98424.16
2022-11-24T02:56:53.484Z,98431.81
2022-11-24T02:57:55.024Z,98424.03
2022-11-24T02:58:56.468Z,98415.41
2022-11-24T02:59:57.905Z,98425.69
2022-11-24T03:00:59.411Z,98423.94
2022-11-24T03:02:01.106Z,98423.09
2022-11-24T03:03:03.396Z,98427.78
2022-11-24T03:04:04.940Z,98416.66
2022-11-24T03:05:06.492Z,98418.41
2022-11-24T03:06:07.955Z,98425.38
2022-11-24T03:07:09.414Z,98429.09
2022-11-24T03:08:10.867Z,98419.56
2022-11-24T03:09:12.370Z,98420.50
2022-11-24T03:10:13.832Z,98425.47
2022-11-24T03:11:15.309Z,98427.25
2022-11-24T03:12:16.731Z,98434.22
2022-11-24T03:13:18.286Z,98432.34
2022-11-24T03:14:19.739Z,98424.53
2022-11-24T03:15:21.480Z,98426.13
2022-11-24T03:16:22.964Z,98429.53
2022-11-24T03:17:24.403Z,98437.13
2022-11-24T03:18:25.833Z,98425.59
2022-11-24T03:19:27.292Z,98423.84
2022-11-24T03:20:28.739Z,98419.25
2022-11-24T03:21:30.447Z,98420.00
2022-11-24T03:22:31.936Z,98424.34
2022-11-24T03:23:33.405Z,98424.25
2022-11-24T03:24:35.047Z,98426.75
2022-11-24T03:25:36.651Z,98427.81
2022-11-24T03:26:38.119Z,98426.09
2022-11-24T03:27:39.583Z,98426.94
2022-11-24T03:28:41.081Z,98425.06
2022-11-24T03:29:42.532Z,98428.41
2022-11-24T03:30:44.026Z,98424.78
2022-11-24T03:31:45.507Z,98422.91
2022-11-24T03:32:46.981Z,98432.47
2022-11-24T03:33:48.430Z,98436.00
2022-11-24T03:34:49.867Z,98429.34
2022-11-24T03:35:51.345Z,98431.22
2022-11-24T03:36:52.820Z,98431.22
2022-11-24T03:37:54.316Z,98429.47
2022-11-24T03:38:55.745Z,98434.97
2022-11-24T03:39:57.164Z,98435.34
2022-11-24T03:40:58.606Z,98430.28
2022-11-24T03:42:00.040Z,98428.41
2022-11-24T03:43:01.482Z,98436.84
2022-11-24T03:44:03.265Z,98436.94
2022-11-24T03:45:29.837Z,98426.63
2022-11-24T03:46:26.424Z,98433.81
2022-11-24T03:47:27.894Z,98433.19
2022-11-24T03:48:29.380Z,98432.47
2022-11-24T03:49:30.851Z,98433.47
2022-11-24T03:50:32.332Z,98446.03
2022-11-24T03:51:33.812Z,98446.44
2022-11-24T03:52:35.253Z,98447.66
2022-11-24T03:53:36.778Z,98447.88
2022-11-24T03:54:38.204Z,98448.81
2022-11-24T03:55:39.676Z,98451.41
2022-11-24T03:56:41.160Z,98448.28
2022-11-24T03:57:42.700Z,98452.19
2022-11-24T03:58:44.168Z,98450.53
2022-11-24T03:59:45.605Z,98450.53
2022-11-24T04:00:51.045Z,98457.19
2022-11-24T04:01:52.539Z,98451.25
2022-11-24T04:02:54.221Z,98453.66
2022-11-24T04:03:55.679Z,98460.41
2022-11-24T04:04:57.114Z,98463.72
2022-11-24T04:05:58.573Z,98456.31
2022-11-24T04:06:59.992Z,98465.66
2022-11-24T04:08:01.530Z,98463.88
2022-11-24T04:09:04.153Z,98469.84
2022-11-24T04:10:05.888Z,98466.31
2022-11-24T04:11:07.421Z,98469.91
2022-11-24T04:12:09.028Z,98466.88
2022-11-24T04:13:15.700Z,98469.41
2022-11-24T04:14:17.143Z,98470.31
2022-11-24T04:15:19.330Z,98469.78
2022-11-24T04:16:20.835Z,98469.03
2022-11-24T04:17:22.317Z,98474.22
2022-11-24T04:18:23.765Z,98462.06
2022-11-24T04:19:25.217Z,98464.59
2022-11-24T04:20:26.631Z,98457.22
2022-11-24T04:21:28.152Z,98460.09
2022-11-24T04:22:29.687Z,98462.47
2022-11-24T04:23:31.135Z,98464.22
2022-11-24T04:24:33.019Z,98469.25
2022-11-24T04:25:35.128Z,98468.13
2022-11-24T04:26:36.584Z,98463.56
2022-11-24T04:27:38.512Z,98467.63
2022-11-24T04:28:39.956Z,98477.91
2022-11-24T04:29:41.382Z,98479.38
2022-11-24T04:30:42.833Z,98482.59
2022-11-24T04:31:44.358Z,98476.56
2022-11-24T04:32:46.264Z,98480.00
2022-11-24T04:33:47.730Z,98483.97
2022-11-24T04:34:49.152Z,98479.59
2022-11-24T04:35:53.027Z,98479.00
2022-11-24T04:36:54.492Z,98483.97
2022-11-24T04:37:55.932Z,98487.94
2022-11-24T04:39:19.483Z,98493.56
2022-11-24T04:40:19.051Z,98487.97
2022-11-24T04:41:20.488Z,98492.78
2022-11-24T04:42:22.032Z,98491.53
2022-11-24T04:43:23.500Z,98497.38
2022-11-24T04:44:24.936Z,98494.47
2022-11-24T04:45:26.406Z,98497.69
2022-11-24T04:46:27.953Z,98496.66
2022-11-24T04:47:29.431Z,98495.63
2022-11-24T04:48:30.929Z,98494.50
2022-11-24T04:49:32.553Z,98486.59
2022-11-24T04:50:33.998Z,98492.41
2022-11-24T04:51:35.471Z,98495.84
2022-11-24T04:52:36.950Z,98498.38
2022-11-24T04:53:38.410Z,98498.97
2022-11-24T04:54:39.927Z,98497.13
2022-11-24T04:55:41.368Z,98497.94
2022-11-24T04:56:43.054Z,98497.00
2022-11-24T04:57:44.508Z,98500.31
2022-11-24T04:58:48.220Z,98495.97
2022-11-24T04:59:50.369Z,98498.38
2022-11-24T05:00:51.808Z,98494.81
2022-11-24T05:01:53.335Z,98495.75
2022-11-24T05:02:55.104Z,98499.22
2022-11-24T05:03:57.011Z,98495.66
2022-11-24T05:04:58.505Z,98499.09
2022-11-24T05:05:59.954Z,98499.94
2022-11-24T05:07:01.410Z,98505.13
2022-11-24T05:08:02.910Z,98503.69
2022-11-24T05:09:04.976Z,98500.63
2022-11-24T05:10:06.651Z,98506.84
2022-11-24T05:11:08.078Z,98503.09
2022-11-24T05:12:09.491Z,98503.59
2022-11-24T05:13:11.559Z,98499.84
2022-11-24T05:14:12.950Z,98502.53
2022-11-24T05:15:14.380Z,98498.78
2022-11-24T05:16:15.892Z,98507.84
2022-11-24T05:17:17.385Z,98502.56
2022-11-24T05:18:18.793Z,98511.09
2022-11-24T05:19:20.274Z,98505.91
2022-11-24T05:20:21.716Z,98510.78
2022-11-24T05:21:23.138Z,98511.41
2022-11-24T05:22:24.667Z,98516.50
2022-11-24T05:23:26.492Z,98517.34
2022-11-24T05:24:27.862Z,98519.03
2022-11-24T05:25:29.384Z,98513.81
2022-11-24T05:26:30.810Z,98516.22
2022-11-24T05:27:32.255Z,98521.31
2022-11-24T05:28:33.708Z,98525.47
2022-11-24T05:29:35.125Z,98532.22
2022-11-24T05:30:39.724Z,98523.72
2022-11-24T05:31:41.119Z,98521.50
2022-11-24T05:32:42.514Z,98523.28
2022-11-24T05:33:43.934Z,98523.91
2022-11-24T05:34:45.336Z,98524.44
2022-11-24T05:35:47.006Z,98532.88
2022-11-24T05:36:48.395Z,98530.25
2022-11-24T05:37:50.009Z,98531.00
2022-11-24T05:38:51.413Z,98529.31
2022-11-24T05:39:52.822Z,98534.72
2022-11-24T05:40:54.276Z,98531.28
2022-11-24T05:41:55.672Z,98530.00
2022-11-24T05:42:57.089Z,98533.53
2022-11-24T05:43:58.497Z,98537.66
2022-11-24T05:44:59.874Z,98542.31
2022-11-24T05:46:01.529Z,98539.72
2022-11-24T05:47:02.944Z,98543.34
2022-11-24T05:48:05.510Z,98547.59
2022-11-24T05:49:06.912Z,98545.81
2022-11-24T05:50:09.497Z,98545.81
2022-11-24T05:51:10.899Z,98548.09
2022-11-24T05:52:12.324Z,98553.38
2022-11-24T05:53:13.732Z,98553.50
2022-11-24T05:54:15.142Z,98543.38
2022-11-24T05:56:35.347Z,98550.03
2022-11-24T05:57:36.701Z,98553.50
2022-11-24T05:58:38.061Z,98550.78
2022-11-24T05:59:39.413Z,98554.22
2022-11-24T06:00:40.807Z,98551.63
2022-11-24T06:01:42.223Z,98553.38
2022-11-24T06:02:43.780Z,98558.97
2022-11-24T06:03:45.169Z,98553.94
2022-11-24T06:04:46.582Z,98553.94
2022-11-24T06:05:48.082Z,98556.75
2022-11-24T06:06:49.532Z,98552.41
2022-11-24T06:07:50.980Z,98556.84
2022-11-24T06:08:52.398Z,98559.13
2022-11-24T06:09:53.797Z,98556.47
2022-11-24T06:10:55.159Z,98558.84
2022-11-24T06:11:56.555Z,98556.25
2022-11-24T06:12:57.960Z,98553.56
2022-11-24T06:13:59.410Z,98562.81
2022-11-24T06:15:00.929Z,98556.59
2022-11-24T06:16:02.375Z,98561.41
2022-11-24T06:17:04.371Z,98567.16
2022-11-24T06:18:05.875Z,98566.22
2022-11-24T06:19:07.254Z,98567.59
2022-11-24T06:20:09.599Z,98567.38
2022-11-24T06:21:12.019Z,98570.19
2022-11-24T06:22:13.654Z,98566.41
2022-11-24T06:23:15.000Z,98574.38
2022-11-24T06:24:16.560Z,98571.91
2022-11-24T06:25:17.944Z,98577.19
2022-11-24T06:26:19.322Z,98574.78
2022-11-24T06:27:20.791Z,98578.09
2022-11-24T06:28:22.169Z,98578.97
2022-11-24T06:29:23.544Z,98576.75
2022-11-24T06:30:24.899Z,98588.91
2022-11-24T06:31:26.324Z,98584.72
2022-11-24T06:32:27.858Z,98586.59
2022-11-24T06:33:36.041Z,98591.13
2022-11-24T06:34:37.565Z,98588.09
2022-11-24T06:35:38.965Z,98594.84
2022-11-24T06:36:40.358Z,98592.72
2022-11-24T06:37:41.742Z,98589.06
2022-11-24T06:38:43.237Z,98587.41
2022-11-24T06:39:44.639Z,98594.91
2022-11-24T06:40:46.005Z,98593.25
2022-11-24T06:41:49.509Z,98590.56
2022-11-24T06:42:50.953Z,98588.13
2022-11-24T06:43:52.328Z,98594.19
2022-11-24T06:44:53.705Z,98590.44
2022-11-24T06:45:55.450Z,98592.88
2022-11-24T06:46:56.865Z,98596.19
2022-11-24T06:47:58.230Z,98589.78
2022-11-24T06:48:59.651Z,98593.75
2022-11-24T06:50:01.056Z,98596.16
2022-11-24T06:51:04.300Z,98596.50
2022-11-24T06:52:05.744Z,98590.25
2022-11-24T06:53:07.118Z,98598.81
2022-11-24T06:54:09.720Z,98599.53
2022-11-24T06:55:11.116Z,98601.94
2022-11-24T06:56:16.578Z,98598.19
2022-11-24T06:57:18.336Z,98602.38
2022-11-24T06:58:19.727Z,98598.84
2022-11-24T06:59:21.125Z,98613.19
2022-11-24T07:00:22.520Z,98606.25
2022-11-24T07:01:25.186Z,98605.19
2022-11-24T07:02:26.608Z,98611.13
2022-11-24T07:03:28.064Z,98608.34
2022-11-24T07:04:29.507Z,98603.75
2022-11-24T07:05:30.883Z,98613.25
2022-11-24T07:06:32.280Z,98611.75
2022-11-24T07:07:33.730Z,98603.31
2022-11-24T07:08:35.142Z,98612.34
2022-11-24T07:09:36.509Z,98605.25
2022-11-24T07:10:37.941Z,98613.16
2022-11-24T07:11:39.881Z,98613.25
2022-11-24T07:12:41.249Z,98610.66
2022-11-24T07:13:43.232Z,98612.09
2022-11-24T07:14:44.617Z,98616.72
2022-11-24T07:15:46.703Z,98625.53
2022-11-24T07:16:48.142Z,98624.63
2022-11-24T07:17:49.576Z,98627.13
2022-11-24T07:18:51.781Z,98621.84
2022-11-24T07:19:53.142Z,98621.72
2022-11-24T07:20:54.525Z,98624.78
2022-11-24T07:21:56.080Z,98627.19
2022-11-24T07:22:57.970Z,98631.97
2022-11-24T07:23:59.373Z,98630.44
2022-11-24T07:25:01.045Z,98633.09
2022-11-24T07:26:06.757Z,98633.41
2022-11-24T07:27:08.523Z,98623.22
2022-11-24T07:28:10.076Z,98632.97
2022-11-24T07:29:11.441Z,98630.34
2022-11-24T07:30:12.919Z,98638.34
2022-11-24T07:31:16.233Z,98629.63
2022-11-24T07:32:17.705Z,98624.53
2022-11-24T07:33:19.069Z,98632.44
2022-11-24T07:34:20.455Z,98633.44
2022-11-24T07:35:21.871Z,98632.81
2022-11-24T07:36:23.787Z,98638.91
2022-11-24T07:37:30.901Z,98640.31
2022-11-24T07:38:33.469Z,98643.53
2022-11-24T07:39:34.846Z,98644.38
2022-11-24T07:40:36.205Z,98644.66
2022-11-24T07:41:37.560Z,98644.97
2022-11-24T07:42:38.892Z,98649.31
2022-11-24T07:43:40.559Z,98650.25
2022-11-24T07:44:41.940Z,98651.19
2022-11-24T07:45:43.377Z,98651.72
2022-11-24T07:46:44.826Z,98653.94
2022-11-24T07:47:46.180Z,98646.97
2022-11-24T07:48:47.816Z,98651.34
2022-11-24T07:49:49.208Z,98650.50
2022-11-24T07:50:55.465Z,98649.69
2022-11-24T07:51:57.517Z,98656.53
2022-11-24T07:53:02.785Z,98652.28
2022-11-24T07:54:04.203Z,98653.09
2022-11-24T07:55:05.866Z,98649.75
2022-11-24T07:56:07.717Z,98648.81
2022-11-24T07:57:09.066Z,98656.53
2022-11-24T07:58:10.412Z,98654.94
2022-11-24T07:59:11.813Z,98660.16
2022-11-24T08:00:13.458Z,98658.09
2022-11-24T08:01:16.135Z,98659.56
2022-11-24T08:02:17.593Z,98657.78
2022-11-24T08:03:19.035Z,98652.88
2022-11-24T08:04:20.541Z,98662.66
2022-11-24T08:05:21.950Z,98661.72
2022-11-24T08:06:26.546Z,98663.38
2022-11-24T08:07:30.515Z,98658.56
2022-11-24T08:08:31.889Z,98665.09
2022-11-24T08:09:33.320Z,98663.06
2022-11-24T08:10:34.722Z,98660.19
2022-11-24T08:11:36.114Z,98666.00
2022-11-24T08:12:37.471Z,98666.84
2022-11-24T08:13:39.304Z,98665.09
2022-11-24T08:14:40.678Z,98665.91
2022-11-24T08:15:42.107Z,98668.50
2022-11-24T08:16:43.550Z,98663.50
2022-11-24T08:17:44.985Z,98672.03
2022-11-24T08:18:50.080Z,98669.34
2022-11-24T08:19:51.412Z,98670.00
2022-11-24T08:20:52.761Z,98671.31
2022-11-24T08:21:54.132Z,98669.38
2022-11-24T08:22:58.786Z,98673.63
2022-11-24T08:24:00.193Z,98669.19
2022-11-24T08:25:01.653Z,98671.03
2022-11-24T08:26:04.037Z,98672.81
2022-11-24T08:27:05.422Z,98672.25
2022-11-24T08:28:06.792Z,98669.78
2022-11-24T08:29:08.154Z,98667.91
2022-11-24T08:30:09.849Z,98671.44
2022-11-24T08:31:12.741Z,98672.66
2022-11-24T08:32:17.562Z,98677.56
2022-11-24T08:33:23.208Z,98674.56
2022-11-24T08:34:25.036Z,98676.53
2022-11-24T08:35:26.925Z,98672.66
2022-11-24T08:36:28.326Z,98675.72
2022-11-24T08:37:29.680Z,98670.59
2022-11-24T08:38:31.074Z,98669.78
2022-11-24T08:39:33.074Z,98675.78
2022-11-24T08:40:34.419Z,98681.00
2022-11-24T08:41:35.895Z,98680.69
2022-11-24T08:42:37.392Z,98683.75
2022-11-24T08:43:39.135Z,98685.31
2022-11-24T08:44:40.563Z,98687.06
2022-11-24T08:45:42.240Z,98679.38
2022-11-24T08:46:44.395Z,98685.53
2022-11-24T08:47:45.851Z,98685.53
2022-11-24T08:48:51.058Z,98685.41
2022-11-24T08:49:52.427Z,98685.22
2022-11-24T08:50:53.909Z,98685.75
2022-11-24T08:51:56.923Z,98685.31
2022-11-24T08:52:58.309Z,98685.31
2022-11-24T08:54:00.995Z,98685.97
2022-11-24T08:55:02.403Z,98687.84
2022-11-24T08:56:04.424Z,98681.88
2022-11-24T08:57:05.838Z,98690.09
2022-11-24T08:58:07.222Z,98689.50
2022-11-24T08:59:12.415Z,98693.63
2022-11-24T09:00:14.040Z,98689.19
2022-11-24T09:01:16.248Z,98692.72
2022-11-24T09:02:17.716Z,98695.41
2022-11-24T09:03:19.090Z,98693.94
2022-11-24T09:04:20.453Z,98688.84
2022-11-24T09:05:50.144Z,98692.19
2022-11-24T09:06:43.283Z,98699.59
2022-11-24T09:07:44.730Z,98700.41
2022-11-24T09:08:46.127Z,98695.63
2022-11-24T09:09:47.511Z,98703.50
2022-11-24T09:10:48.893Z,98699.78
2022-11-24T09:11:50.260Z,98701.34
2022-11-24T09:12:51.634Z,98698.53
2022-11-24T09:13:53.641Z,98700.94
2022-11-24T09:14:55.032Z,98711.03
2022-11-24T09:15:56.429Z,98704.19
2022-11-24T09:16:57.916Z,98706.13
2022-11-24T09:17:59.333Z,98712.91
2022-11-24T09:19:01.832Z,98706.06
2022-11-24T09:20:03.486Z,98705.13
2022-11-24T09:21:10.894Z,98703.38
2022-11-24T09:22:12.289Z,98706.59
2022-11-24T09:23:13.686Z,98700.66
2022-11-24T09:24:15.074Z,98706.69
2022-11-24T09:25:16.540Z,98708.34
2022-11-24T09:26:22.371Z,98707.72
2022-11-24T09:27:23.761Z,98710.53
2022-11-24T09:28:25.145Z,98707.19
2022-11-24T09:29:26.547Z,98706.47
2022-11-24T09:30:27.959Z,98707.03
2022-11-24T09:31:30.710Z,98704.81
2022-11-24T09:32:32.180Z,98705.13
2022-11-24T09:33:34.363Z,98707.84
2022-11-24T09:34:35.749Z,98710.97
2022-11-24T09:35:37.329Z,98702.66
2022-11-24T09:36:38.759Z,98707.88
2022-11-24T09:37:40.109Z,98706.03
2022-11-24T09:38:41.629Z,98710.00
2022-11-24T09:39:43.117Z,98715.09
2022-11-24T09:40:44.492Z,98713.22
2022-11-24T09:42:05.203Z,98709.50
2022-11-24T09:43:12.478Z,98711.88
2022-11-24T09:44:32.413Z,98713.66
2022-11-24T09:46:04.425Z,98705.03
2022-11-24T09:47:13.730Z,98711.69
2022-11-24T09:48:22.826Z,98707.84
2022-11-24T09:49:30.188Z,98718.03
2022-11-24T09:50:36.133Z,98711.72
2022-11-24T09:51:38.483Z,98717.22
2022-11-24T09:52:45.669Z,98709.50
2022-11-24T09:54:02.451Z,98705.97
2022-11-24T09:55:05.091Z,98709.31
2022-11-24T09:56:15.608Z,98703.94
2022-11-24T09:57:17.861Z,98696.84
2022-11-24T09:58:51.534Z,98694.91
2022-11-24T09:59:55.184Z,98687.69
2022-11-24T10:00:57.738Z,98694.91
2022-11-24T10:02:00.159Z,98699.25
2022-11-24T10:03:01.850Z,98698.22
2022-11-24T10:04:06.661Z,98697.72
2022-11-24T10:05:08.471Z,98706.16
2022-11-24T10:06:15.717Z,98706.97
2022-11-24T10:07:35.787Z,98704.19
2022-11-24T10:08:47.934Z,98707.19
2022-11-24T10:09:52.042Z,98699.28
2022-11-24T10:10:57.514Z,98705.84
2022-11-24T10:12:08.338Z,98706.78
2022-11-24T10:13:25.048Z,98711.88
2022-11-24T10:14:41.984Z,98717.41
2022-11-24T10:15:52.318Z,98708.66
2022-11-24T10:17:09.109Z,98713.66
2022-11-24T10:18:19.760Z,98713.44
2022-11-24T10:19:36.961Z,98718.63
2022-11-24T10:20:48.758Z,98715.84
2022-11-24T10:21:50.076Z,98710.44
2022-11-24T10:23:06.637Z,98709.28
2022-11-24T10:24:26.466Z,98715.13
2022-11-24T10:25:42.554Z,98710.00
2022-11-24T10:27:04.129Z,98713.38
2022-11-24T10:28:10.173Z,98717.50
2022-11-24T10:29:46.977Z,98714.81
2022-11-24T10:30:49.420Z,98717.63
2022-11-24T10:31:53.625Z,98712.44
2022-11-24T10:33:03.508Z,98714.91
2022-11-24T10:34:16.153Z,98722.00
2022-11-24T10:35:21.026Z,98718.25
2022-11-24T10:36:45.563Z,98709.69
2022-11-24T10:37:54.373Z,98718.44
2022-11-24T10:39:05.456Z,98713.97
2022-11-24T10:40:32.972Z,98718.13
2022-11-24T10:41:49.446Z,98713.34
2022-11-24T10:42:50.817Z,98713.25
2022-11-24T10:43:52.161Z,98716.78
2022-11-24T10:45:00.489Z,98714.50
2022-11-24T10:46:11.598Z,98717.84
2022-11-24T10:47:17.381Z,98716.06
2022-11-24T10:48:21.616Z,98716.78
2022-11-24T10:49:26.785Z,98719.09
2022-11-24T10:50:31.151Z,98711.88
2022-11-24T10:51:36.421Z,98720.53
2022-11-24T10:52:40.988Z,98712.72
2022-11-24T10:53:42.906Z,98720.84
2022-11-24T10:55:13.690Z,98713.88
2022-11-24T10:56:15.103Z,98719.19
2022-11-24T10:57:27.227Z,98720.94
2022-11-24T10:58:34.447Z,98720.13
2022-11-24T10:59:39.034Z,98715.84
2022-11-24T11:00:40.573Z,98721.16
2022-11-24T11:01:42.035Z,98720.03
2022-11-24T11:02:43.470Z,98719.00
2022-11-24T11:03:55.814Z,98716.38
2022-11-24T11:04:57.397Z,98716.16
2022-11-24T11:06:11.003Z,98718.56
2022-11-24T11:07:15.243Z,98720.94
2022-11-24T11:08:26.098Z,98717.22
2022-11-24T11:09:27.464Z,98719.81
2022-11-24T11:10:28.885Z,98722.19
2022-11-24T11:11:30.348Z,98720.31
2022-11-24T11:12:47.104Z,98719.28
2022-11-24T11:13:49.814Z,98722.69
2022-11-24T11:14:51.200Z,98726.25
2022-11-24T11:15:53.093Z,98727.09
2022-11-24T11:16:55.469Z,98728.66
2022-11-24T11:17:58.107Z,98722.31
2022-11-24T11:19:00.368Z,98722.31
2022-11-24T11:20:17.621Z,98726.50
2022-11-24T11:21:27.737Z,98726.16
2022-11-24T11:22:30.628Z,98728.66
2022-11-24T11:23:33.639Z,98723.16
2022-11-24T11:24:35.574Z,98728.25
2022-11-24T11:25:36.973Z,98729.78
2022-11-24T11:26:38.371Z,98731.47
2022-11-24T11:27:40.253Z,98735.00
2022-11-24T11:28:41.609Z,98733.56
2022-11-24T11:31:22.277Z,98735.44
2022-11-24T11:34:03.837Z,98731.69
2022-11-24T11:35:06.758Z,98739.59
2022-11-24T11:36:09.689Z,98736.88
2022-11-24T11:37:12.864Z,98736.16
2022-11-24T11:38:14.325Z,98737.50
2022-11-24T11:39:21.713Z,98737.41
2022-11-24T11:40:27.468Z,98738.97
2022-11-24T11:41:30.903Z,98742.41
2022-11-24T11:43:00.805Z,98736.25
2022-11-24T11:44:00.897Z,98744.91
2022-11-24T11:45:02.260Z,98734.91
2022-11-24T11:46:05.583Z,98739.38
2022-11-24T11:47:27.995Z,98739.28
2022-11-24T11:48:42.279Z,98747.91
2022-11-24T11:49:44.409Z,98739.91
2022-11-24T11:51:21.157Z,98741.16
2022-11-24T11:52:24.091Z,98746.44
2022-11-24T11:53:31.495Z,98753.41
2022-11-24T11:54:33.352Z,98746.16
2022-11-24T11:55:49.668Z,98749.28
2022-11-24T11:57:02.572Z,98744.88
2022-11-24T11:58:16.159Z,98749.88
2022-11-24T11:59:23.301Z,98744.06
2022-11-24T12:00:24.779Z,98745.59
2022-11-24T12:01:26.140Z,98745.59
2022-11-24T12:02:39.755Z,98742.50
2022-11-24T12:03:54.070Z,98745.72
2022-11-24T12:04:55.530Z,98753.03
2022-11-24T12:06:05.994Z,98746.97
2022-11-24T12:07:23.186Z,98746.66
2022-11-24T12:09:03.354Z,98741.38
2022-11-24T12:10:14.418Z,98744.28
2022-11-24T12:11:21.676Z,98748.84
2022-11-24T12:12:34.323Z,98741.97
2022-11-24T12:13:38.315Z,98746.97
2022-11-24T12:15:11.967Z,98745.22
2022-11-24T12:16:13.428Z,98751.56
2022-11-24T12:17:27.071Z,98755.19
2022-11-24T12:18:57.458Z,98753.41
2022-11-24T12:20:08.541Z,98747.91
2022-11-24T12:21:21.519Z,98752.09
2022-11-24T12:22:33.477Z,98749.47
2022-11-24T12:23:43.665Z,98752.00
2022-11-24T12:24:57.654Z,98750.75
2022-11-24T12:26:17.829Z,98755.00
2022-11-24T12:27:40.813Z,98749.91
2022-11-24T12:29:00.706Z,98748.75
2022-11-24T12:30:08.896Z,98753.66
2022-11-24T12:31:16.186Z,98749.50
2022-11-24T12:32:23.944Z,98740.13